sensor_id;sensor_type;location;lat;lon;timestamp;temperature;humidity
5200;DHT22;2619;47.868;11.892;2022-12-18T00:01:59;-3.80;99.90
5200;DHT22;2619;47.868;11.892;2022-12-18T00:04:26;-3.80;99.90
5200;DHT22;2619;47.868;11.892;2022-12-18T00:06:52;-3.80;99.90
5200;DHT22;2619;47.868;11.892;2022-12-18T00:09:18;-3.70;99.90
5200;DHT22;2619;47.868;11.892;2022-12-18T00:11:44;-3.80;99.90
5200;DHT22;2619;47.868;11.892;2022-12-18T00:14:12;-3.70;99.90
5200;DHT22;2619;47.868;11.892;2022-12-18T00:16:38;-3.70;99.90
5200;DHT22;2619;47.868;11.892;2022-12-18T00:19:04;-3.70;99.90
5200;DHT22;2619;47.868;11.892;2022-12-18T00:21:32;-3.80;99.90
5200;DHT22;2619;47.868;11.892;2022-12-18T00:23:58;-3.70;99.90
5200;DHT22;2619;47.868;11.892;2022-12-18T00:26:27;-3.70;99.90
5200;DHT22;2619;47.868;11.892;2022-12-18T00:28:53;-3.80;99.90
5200;DHT22;2619;47.868;11.892;2022-12-18T00:31:23;-3.70;99.90
5200;DHT22;2619;47.868;11.892;2022-12-18T00:33:49;-3.70;99.90
5200;DHT22;2619;47.868;11.892;2022-12-18T00:36:20;-3.70;99.90
5200;DHT22;2619;47.868;11.892;2022-12-18T00:38:47;-3.70;99.90
5200;DHT22;2619;47.868;11.892;2022-12-18T00:41:14;-3.70;99.90
5200;DHT22;2619;47.868;11.892;2022-12-18T00:44:00;-3.70;99.90
5200;DHT22;2619;47.868;11.892;2022-12-18T00:46:26;-3.70;99.90
5200;DHT22;2619;47.868;11.892;2022-12-18T00:48:52;-3.70;99.90
5200;DHT22;2619;47.868;11.892;2022-12-18T00:51:17;-3.60;99.90
5200;DHT22;2619;47.868;11.892;2022-12-18T00:53:43;-3.60;99.90
5200;DHT22;2619;47.868;11.892;2022-12-18T00:56:08;-3.60;99.90
5200;DHT22;2619;47.868;11.892;2022-12-18T00:58:35;-3.60;99.90
5200;DHT22;2619;47.868;11.892;2022-12-18T01:01:01;-3.60;99.90
5200;DHT22;2619;47.868;11.892;2022-12-18T01:03:26;-3.70;99.90
5200;DHT22;2619;47.868;11.892;2022-12-18T01:05:52;-3.70;99.90
5200;DHT22;2619;47.868;11.892;2022-12-18T01:08:17;-3.60;99.90
5200;DHT22;2619;47.868;11.892;2022-12-18T01:10:43;-3.70;99.90
5200;DHT22;2619;47.868;11.892;2022-12-18T01:13:08;-3.60;99.90
5200;DHT22;2619;47.868;11.892;2022-12-18T01:15:34;-3.60;99.90
5200;DHT22;2619;47.868;11.892;2022-12-18T01:17:59;-3.60;99.90
5200;DHT22;2619;47.868;11.892;2022-12-18T01:20:25;-3.60;99.90
5200;DHT22;2619;47.868;11.892;2022-12-18T01:22:51;-3.60;99.90
5200;DHT22;2619;47.868;11.892;2022-12-18T01:25:16;-3.60;99.90
5200;DHT22;2619;47.868;11.892;2022-12-18T01:27:43;-3.60;99.90
5200;DHT22;2619;47.868;11.892;2022-12-18T01:30:08;-3.70;99.90
5200;DHT22;2619;47.868;11.892;2022-12-18T01:32:34;-3.60;99.90
5200;DHT22;2619;47.868;11.892;2022-12-18T01:35:00;-3.70;99.90
5200;DHT22;2619;47.868;11.892;2022-12-18T01:37:25;-3.70;99.90
5200;DHT22;2619;47.868;11.892;2022-12-18T01:39:52;-3.70;99.90
5200;DHT22;2619;47.868;11.892;2022-12-18T01:42:20;-3.70;99.90
5200;DHT22;2619;47.868;11.892;2022-12-18T01:52:35;-3.70;99.90
5200;DHT22;2619;47.868;11.892;2022-12-18T01:55:04;-3.70;99.90
5200;DHT22;2619;47.868;11.892;2022-12-18T01:57:30;-3.70;99.90
5200;DHT22;2619;47.868;11.892;2022-12-18T02:00:00;-3.70;99.90
5200;DHT22;2619;47.868;11.892;2022-12-18T02:02:28;-3.80;99.90
5200;DHT22;2619;47.868;11.892;2022-12-18T02:04:55;-3.90;99.90
5200;DHT22;2619;47.868;11.892;2022-12-18T02:10:24;-3.80;99.90
5200;DHT22;2619;47.868;11.892;2022-12-18T02:13:17;-3.80;99.90
5200;DHT22;2619;47.868;11.892;2022-12-18T02:15:54;-3.80;99.90
5200;DHT22;2619;47.868;11.892;2022-12-18T02:18:28;-3.90;99.90
5200;DHT22;2619;47.868;11.892;2022-12-18T02:23:51;-3.90;99.90
5200;DHT22;2619;47.868;11.892;2022-12-18T02:26:26;-3.90;99.90
5200;DHT22;2619;47.868;11.892;2022-12-18T02:29:00;-3.90;99.90
5200;DHT22;2619;47.868;11.892;2022-12-18T02:31:29;-3.90;99.90
5200;DHT22;2619;47.868;11.892;2022-12-18T02:33:59;-3.90;99.90
5200;DHT22;2619;47.868;11.892;2022-12-18T02:36:27;-3.80;99.90
5200;DHT22;2619;47.868;11.892;2022-12-18T02:38:54;-3.90;99.90
5200;DHT22;2619;47.868;11.892;2022-12-18T02:41:21;-3.90;99.90
5200;DHT22;2619;47.868;11.892;2022-12-18T02:43:56;-3.90;99.90
5200;DHT22;2619;47.868;11.892;2022-12-18T02:57:16;-3.70;99.90
5200;DHT22;2619;47.868;11.892;2022-12-18T02:59:54;-3.80;99.90
5200;DHT22;2619;47.868;11.892;2022-12-18T03:02:50;-3.80;99.90
5200;DHT22;2619;47.868;11.892;2022-12-18T03:05:33;-3.80;99.90
5200;DHT22;2619;47.868;11.892;2022-12-18T03:08:07;-3.80;99.90
5200;DHT22;2619;47.868;11.892;2022-12-18T03:10:40;-3.90;99.90
5200;DHT22;2619;47.868;11.892;2022-12-18T03:13:10;-3.90;99.90
5200;DHT22;2619;47.868;11.892;2022-12-18T03:15:43;-3.90;99.90
5200;DHT22;2619;47.868;11.892;2022-12-18T03:18:23;-3.90;99.90
5200;DHT22;2619;47.868;11.892;2022-12-18T03:20:51;-3.90;99.90
5200;DHT22;2619;47.868;11.892;2022-12-18T03:23:22;-4.00;99.90
5200;DHT22;2619;47.868;11.892;2022-12-18T03:25:52;-4.00;99.90
5200;DHT22;2619;47.868;11.892;2022-12-18T03:28:22;-4.00;99.90
5200;DHT22;2619;47.868;11.892;2022-12-18T03:30:52;-4.00;99.90
5200;DHT22;2619;47.868;11.892;2022-12-18T03:33:34;-4.00;99.90
5200;DHT22;2619;47.868;11.892;2022-12-18T03:36:03;-4.00;99.90
5200;DHT22;2619;47.868;11.892;2022-12-18T03:38:29;-4.00;99.90
5200;DHT22;2619;47.868;11.892;2022-12-18T03:41:33;-4.00;99.90
5200;DHT22;2619;47.868;11.892;2022-12-18T03:46:45;-4.00;99.90
5200;DHT22;2619;47.868;11.892;2022-12-18T03:49:21;-4.10;99.90
5200;DHT22;2619;47.868;11.892;2022-12-18T03:51:57;-4.20;99.90
5200;DHT22;2619;47.868;11.892;2022-12-18T03:54:25;-4.10;99.90
5200;DHT22;2619;47.868;11.892;2022-12-18T03:57:04;-4.20;99.90
5200;DHT22;2619;47.868;11.892;2022-12-18T03:59:33;-4.20;99.90
5200;DHT22;2619;47.868;11.892;2022-12-18T04:02:01;-4.10;99.90
5200;DHT22;2619;47.868;11.892;2022-12-18T04:04:27;-4.10;99.90
5200;DHT22;2619;47.868;11.892;2022-12-18T04:06:54;-4.20;99.90
5200;DHT22;2619;47.868;11.892;2022-12-18T04:09:20;-4.20;99.90
5200;DHT22;2619;47.868;11.892;2022-12-18T04:11:47;-4.20;99.90
5200;DHT22;2619;47.868;11.892;2022-12-18T04:14:14;-4.20;99.90
5200;DHT22;2619;47.868;11.892;2022-12-18T04:16:39;-4.20;99.90
5200;DHT22;2619;47.868;11.892;2022-12-18T04:19:05;-4.30;99.90
5200;DHT22;2619;47.868;11.892;2022-12-18T04:21:31;-4.20;99.90
5200;DHT22;2619;47.868;11.892;2022-12-18T04:23:56;-4.30;99.90
5200;DHT22;2619;47.868;11.892;2022-12-18T04:26:22;-4.30;99.90
5200;DHT22;2619;47.868;11.892;2022-12-18T04:28:48;-4.20;99.90
5200;DHT22;2619;47.868;11.892;2022-12-18T04:31:13;-4.20;99.90
5200;DHT22;2619;47.868;11.892;2022-12-18T04:33:39;-4.20;99.90
5200;DHT22;2619;47.868;11.892;2022-12-18T04:36:05;-4.20;99.90
5200;DHT22;2619;47.868;11.892;2022-12-18T04:38:30;-4.20;99.90
5200;DHT22;2619;47.868;11.892;2022-12-18T04:40:56;-4.30;99.90
5200;DHT22;2619;47.868;11.892;2022-12-18T04:43:21;-4.30;99.90
5200;DHT22;2619;47.868;11.892;2022-12-18T04:45:47;-4.30;99.90
5200;DHT22;2619;47.868;11.892;2022-12-18T04:48:12;-4.30;99.90
5200;DHT22;2619;47.868;11.892;2022-12-18T04:50:38;-4.30;99.90
5200;DHT22;2619;47.868;11.892;2022-12-18T04:53:04;-4.30;99.90
5200;DHT22;2619;47.868;11.892;2022-12-18T04:55:29;-4.40;99.90
5200;DHT22;2619;47.868;11.892;2022-12-18T04:57:55;-4.40;99.90
5200;DHT22;2619;47.868;11.892;2022-12-18T05:00:21;-4.40;99.90
5200;DHT22;2619;47.868;11.892;2022-12-18T05:02:46;-4.40;99.90
5200;DHT22;2619;47.868;11.892;2022-12-18T05:05:12;-4.40;99.90
5200;DHT22;2619;47.868;11.892;2022-12-18T05:07:38;-4.40;99.90
5200;DHT22;2619;47.868;11.892;2022-12-18T05:10:04;-4.40;99.90
5200;DHT22;2619;47.868;11.892;2022-12-18T05:12:33;-4.40;99.90
5200;DHT22;2619;47.868;11.892;2022-12-18T05:14:58;-4.30;99.90
5200;DHT22;2619;47.868;11.892;2022-12-18T05:17:24;-4.20;99.90
5200;DHT22;2619;47.868;11.892;2022-12-18T05:19:49;-4.30;99.90
5200;DHT22;2619;47.868;11.892;2022-12-18T05:22:15;-4.20;99.90
5200;DHT22;2619;47.868;11.892;2022-12-18T05:24:41;-4.30;99.90
5200;DHT22;2619;47.868;11.892;2022-12-18T05:27:07;-4.20;99.90
5200;DHT22;2619;47.868;11.892;2022-12-18T05:29:32;-4.20;99.90
5200;DHT22;2619;47.868;11.892;2022-12-18T05:31:58;-4.20;99.90
5200;DHT22;2619;47.868;11.892;2022-12-18T05:34:23;-4.20;99.90
5200;DHT22;2619;47.868;11.892;2022-12-18T05:36:49;-4.30;99.90
5200;DHT22;2619;47.868;11.892;2022-12-18T05:39:14;-4.30;99.90
5200;DHT22;2619;47.868;11.892;2022-12-18T05:41:40;-4.40;99.90
5200;DHT22;2619;47.868;11.892;2022-12-18T05:44:06;-4.40;99.90
5200;DHT22;2619;47.868;11.892;2022-12-18T05:46:31;-4.40;99.90
5200;DHT22;2619;47.868;11.892;2022-12-18T05:48:59;-4.50;99.90
5200;DHT22;2619;47.868;11.892;2022-12-18T05:51:26;-4.50;99.90
5200;DHT22;2619;47.868;11.892;2022-12-18T05:53:51;-4.50;99.90
5200;DHT22;2619;47.868;11.892;2022-12-18T05:56:19;-4.50;99.90
5200;DHT22;2619;47.868;11.892;2022-12-18T05:58:46;-4.50;99.90
5200;DHT22;2619;47.868;11.892;2022-12-18T06:01:15;-4.50;99.90
5200;DHT22;2619;47.868;11.892;2022-12-18T06:03:41;-4.50;99.90
5200;DHT22;2619;47.868;11.892;2022-12-18T06:06:19;-4.60;99.90
5200;DHT22;2619;47.868;11.892;2022-12-18T06:08:45;-4.50;99.90
5200;DHT22;2619;47.868;11.892;2022-12-18T06:11:11;-4.60;99.90
5200;DHT22;2619;47.868;11.892;2022-12-18T06:13:37;-4.60;99.90
5200;DHT22;2619;47.868;11.892;2022-12-18T06:16:06;-4.60;99.90
5200;DHT22;2619;47.868;11.892;2022-12-18T06:18:33;-4.60;99.90
5200;DHT22;2619;47.868;11.892;2022-12-18T06:20:59;-4.50;99.90
5200;DHT22;2619;47.868;11.892;2022-12-18T06:23:25;-4.50;99.90
5200;DHT22;2619;47.868;11.892;2022-12-18T06:25:51;-4.50;99.90
5200;DHT22;2619;47.868;11.892;2022-12-18T06:28:17;-4.50;99.90
5200;DHT22;2619;47.868;11.892;2022-12-18T06:30:46;-4.40;99.90
5200;DHT22;2619;47.868;11.892;2022-12-18T06:33:13;-4.40;99.90
5200;DHT22;2619;47.868;11.892;2022-12-18T06:35:39;-4.50;99.90
5200;DHT22;2619;47.868;11.892;2022-12-18T06:38:05;-4.50;99.90
5200;DHT22;2619;47.868;11.892;2022-12-18T06:40:31;-4.40;99.90
5200;DHT22;2619;47.868;11.892;2022-12-18T06:42:56;-4.40;99.90
5200;DHT22;2619;47.868;11.892;2022-12-18T06:45:22;-4.40;99.90
5200;DHT22;2619;47.868;11.892;2022-12-18T06:47:48;-4.40;99.90
5200;DHT22;2619;47.868;11.892;2022-12-18T06:50:13;-4.40;99.90
5200;DHT22;2619;47.868;11.892;2022-12-18T06:52:39;-4.40;99.90
5200;DHT22;2619;47.868;11.892;2022-12-18T06:55:06;-4.50;99.90
5200;DHT22;2619;47.868;11.892;2022-12-18T06:57:35;-4.40;99.90
5200;DHT22;2619;47.868;11.892;2022-12-18T07:00:01;-4.50;99.90
5200;DHT22;2619;47.868;11.892;2022-12-18T07:02:26;-4.40;99.90
5200;DHT22;2619;47.868;11.892;2022-12-18T07:04:52;-4.40;99.90
5200;DHT22;2619;47.868;11.892;2022-12-18T07:07:17;-4.40;99.90
5200;DHT22;2619;47.868;11.892;2022-12-18T07:09:43;-4.50;99.90
5200;DHT22;2619;47.868;11.892;2022-12-18T07:12:08;-4.50;99.90
5200;DHT22;2619;47.868;11.892;2022-12-18T07:14:34;-4.50;99.90
5200;DHT22;2619;47.868;11.892;2022-12-18T07:16:59;-4.40;99.90
5200;DHT22;2619;47.868;11.892;2022-12-18T07:19:25;-4.50;99.90
5200;DHT22;2619;47.868;11.892;2022-12-18T07:21:51;-4.50;99.90
5200;DHT22;2619;47.868;11.892;2022-12-18T07:24:16;-4.50;99.90
5200;DHT22;2619;47.868;11.892;2022-12-18T07:26:42;-4.50;99.90
5200;DHT22;2619;47.868;11.892;2022-12-18T07:29:08;-4.50;99.90
5200;DHT22;2619;47.868;11.892;2022-12-18T07:31:33;-4.40;99.90
5200;DHT22;2619;47.868;11.892;2022-12-18T07:33:59;-4.40;99.90
5200;DHT22;2619;47.868;11.892;2022-12-18T07:36:25;-4.40;99.90
5200;DHT22;2619;47.868;11.892;2022-12-18T07:38:51;-4.40;99.90
5200;DHT22;2619;47.868;11.892;2022-12-18T07:41:19;-4.40;99.90
5200;DHT22;2619;47.868;11.892;2022-12-18T07:43:45;-4.40;99.90
5200;DHT22;2619;47.868;11.892;2022-12-18T07:46:12;-4.40;99.90
5200;DHT22;2619;47.868;11.892;2022-12-18T07:48:40;-4.40;99.90
5200;DHT22;2619;47.868;11.892;2022-12-18T07:51:06;-4.40;99.90
5200;DHT22;2619;47.868;11.892;2022-12-18T07:53:33;-4.30;99.90
5200;DHT22;2619;47.868;11.892;2022-12-18T07:56:05;-4.30;99.90
5200;DHT22;2619;47.868;11.892;2022-12-18T07:58:30;-4.30;99.90
5200;DHT22;2619;47.868;11.892;2022-12-18T08:01:10;-4.30;99.90
5200;DHT22;2619;47.868;11.892;2022-12-18T08:03:36;-4.30;99.90
5200;DHT22;2619;47.868;11.892;2022-12-18T08:06:03;-4.40;99.90
5200;DHT22;2619;47.868;11.892;2022-12-18T08:08:29;-4.30;99.90
5200;DHT22;2619;47.868;11.892;2022-12-18T08:10:58;-4.30;99.90
5200;DHT22;2619;47.868;11.892;2022-12-18T08:13:24;-4.30;99.90
5200;DHT22;2619;47.868;11.892;2022-12-18T08:16:16;-4.40;99.90
5200;DHT22;2619;47.868;11.892;2022-12-18T08:18:42;-4.50;99.90
5200;DHT22;2619;47.868;11.892;2022-12-18T08:21:16;-4.50;99.90
5200;DHT22;2619;47.868;11.892;2022-12-18T08:23:42;-4.60;99.90
5200;DHT22;2619;47.868;11.892;2022-12-18T08:26:09;-4.60;99.90
5200;DHT22;2619;47.868;11.892;2022-12-18T08:28:35;-4.50;99.90
5200;DHT22;2619;47.868;11.892;2022-12-18T08:31:01;-4.50;99.90
5200;DHT22;2619;47.868;11.892;2022-12-18T08:33:26;-4.60;99.90
5200;DHT22;2619;47.868;11.892;2022-12-18T08:35:52;-4.60;99.90
5200;DHT22;2619;47.868;11.892;2022-12-18T08:38:18;-4.60;99.90
5200;DHT22;2619;47.868;11.892;2022-12-18T08:40:44;-4.50;99.90
5200;DHT22;2619;47.868;11.892;2022-12-18T08:43:10;-4.50;99.90
5200;DHT22;2619;47.868;11.892;2022-12-18T08:46:08;-4.60;99.90
5200;DHT22;2619;47.868;11.892;2022-12-18T08:48:33;-4.50;99.90
5200;DHT22;2619;47.868;11.892;2022-12-18T08:50:59;-4.50;99.90
5200;DHT22;2619;47.868;11.892;2022-12-18T08:53:26;-4.40;99.90
5200;DHT22;2619;47.868;11.892;2022-12-18T08:55:52;-4.30;99.90
5200;DHT22;2619;47.868;11.892;2022-12-18T08:58:18;-4.10;99.90
5200;DHT22;2619;47.868;11.892;2022-12-18T09:00:44;-3.90;99.90
5200;DHT22;2619;47.868;11.892;2022-12-18T09:03:13;-3.80;99.90
5200;DHT22;2619;47.868;11.892;2022-12-18T09:05:40;-3.90;99.90
5200;DHT22;2619;47.868;11.892;2022-12-18T09:08:05;-4.00;99.90
5200;DHT22;2619;47.868;11.892;2022-12-18T09:10:31;-3.90;99.90
5200;DHT22;2619;47.868;11.892;2022-12-18T09:12:57;-3.80;99.90
5200;DHT22;2619;47.868;11.892;2022-12-18T09:15:23;-3.90;99.90
5200;DHT22;2619;47.868;11.892;2022-12-18T09:17:48;-3.90;99.90
5200;DHT22;2619;47.868;11.892;2022-12-18T09:20:15;-3.90;99.90
5200;DHT22;2619;47.868;11.892;2022-12-18T09:22:41;-3.80;99.90
5200;DHT22;2619;47.868;11.892;2022-12-18T09:25:07;-3.80;99.90
5200;DHT22;2619;47.868;11.892;2022-12-18T09:27:33;-4.00;99.90
5200;DHT22;2619;47.868;11.892;2022-12-18T09:29:59;-3.90;99.90
5200;DHT22;2619;47.868;11.892;2022-12-18T09:32:25;-3.80;99.90
5200;DHT22;2619;47.868;11.892;2022-12-18T09:34:51;-3.70;99.90
5200;DHT22;2619;47.868;11.892;2022-12-18T09:37:16;-3.50;99.90
5200;DHT22;2619;47.868;11.892;2022-12-18T09:39:42;-3.50;99.90
5200;DHT22;2619;47.868;11.892;2022-12-18T09:42:16;-3.50;99.90
5200;DHT22;2619;47.868;11.892;2022-12-18T09:44:45;-3.40;99.90
5200;DHT22;2619;47.868;11.892;2022-12-18T09:47:24;-3.40;99.90
5200;DHT22;2619;47.868;11.892;2022-12-18T09:49:55;-3.40;99.90
5200;DHT22;2619;47.868;11.892;2022-12-18T09:52:37;-3.30;99.90
5200;DHT22;2619;47.868;11.892;2022-12-18T09:57:56;-3.40;99.90
5200;DHT22;2619;47.868;11.892;2022-12-18T10:00:24;-3.30;99.90
5200;DHT22;2619;47.868;11.892;2022-12-18T10:02:52;-3.10;99.90
5200;DHT22;2619;47.868;11.892;2022-12-18T10:08:45;-3.30;99.90
5200;DHT22;2619;47.868;11.892;2022-12-18T10:19:56;-2.90;99.90
5200;DHT22;2619;47.868;11.892;2022-12-18T10:22:50;-2.90;99.90
5200;DHT22;2619;47.868;11.892;2022-12-18T10:25:29;-2.80;99.90
5200;DHT22;2619;47.868;11.892;2022-12-18T10:28:00;-2.80;99.90
5200;DHT22;2619;47.868;11.892;2022-12-18T10:30:32;-2.90;99.90
5200;DHT22;2619;47.868;11.892;2022-12-18T10:33:01;-2.90;99.90
5200;DHT22;2619;47.868;11.892;2022-12-18T10:35:27;-2.90;99.90
5200;DHT22;2619;47.868;11.892;2022-12-18T10:38:20;-3.00;99.90
5200;DHT22;2619;47.868;11.892;2022-12-18T10:40:54;-3.10;99.90
5200;DHT22;2619;47.868;11.892;2022-12-18T10:43:28;-3.00;99.90
5200;DHT22;2619;47.868;11.892;2022-12-18T10:48:40;-3.00;99.90
5200;DHT22;2619;47.868;11.892;2022-12-18T10:51:21;-2.90;99.90
5200;DHT22;2619;47.868;11.892;2022-12-18T10:53:55;-2.80;99.90
5200;DHT22;2619;47.868;11.892;2022-12-18T10:56:22;-2.80;99.90
5200;DHT22;2619;47.868;11.892;2022-12-18T10:59:01;-2.70;99.90
5200;DHT22;2619;47.868;11.892;2022-12-18T11:01:27;-2.70;99.90
5200;DHT22;2619;47.868;11.892;2022-12-18T11:06:21;-2.60;99.90
5200;DHT22;2619;47.868;11.892;2022-12-18T11:09:18;-2.60;99.90
5200;DHT22;2619;47.868;11.892;2022-12-18T11:11:52;-2.50;99.90
5200;DHT22;2619;47.868;11.892;2022-12-18T11:14:34;-2.50;99.90
5200;DHT22;2619;47.868;11.892;2022-12-18T11:19:56;-2.70;99.90
5200;DHT22;2619;47.868;11.892;2022-12-18T11:22:28;-2.60;99.90
5200;DHT22;2619;47.868;11.892;2022-12-18T11:24:59;-2.50;99.90
5200;DHT22;2619;47.868;11.892;2022-12-18T11:27:26;-2.40;99.90
5200;DHT22;2619;47.868;11.892;2022-12-18T11:30:20;-2.30;99.90
5200;DHT22;2619;47.868;11.892;2022-12-18T11:32:48;-2.10;99.90
5200;DHT22;2619;47.868;11.892;2022-12-18T11:35:23;-2.10;99.90
5200;DHT22;2619;47.868;11.892;2022-12-18T11:38:04;-2.10;99.90
5200;DHT22;2619;47.868;11.892;2022-12-18T11:40:40;-2.00;99.90
5200;DHT22;2619;47.868;11.892;2022-12-18T11:43:21;-1.80;99.90
5200;DHT22;2619;47.868;11.892;2022-12-18T11:46:02;-1.70;99.90
5200;DHT22;2619;47.868;11.892;2022-12-18T11:48:34;-1.70;99.90
5200;DHT22;2619;47.868;11.892;2022-12-18T11:51:04;-1.70;99.90
5200;DHT22;2619;47.868;11.892;2022-12-18T11:53:34;-1.70;99.90
5200;DHT22;2619;47.868;11.892;2022-12-18T11:56:35;-1.60;99.90
5200;DHT22;2619;47.868;11.892;2022-12-18T12:37:11;-2.20;99.90
5200;DHT22;2619;47.868;11.892;2022-12-18T12:39:40;-2.30;99.90
5200;DHT22;2619;47.868;11.892;2022-12-18T12:42:24;-2.20;99.90
5200;DHT22;2619;47.868;11.892;2022-12-18T12:45:18;-2.30;99.90
5200;DHT22;2619;47.868;11.892;2022-12-18T12:47:48;-2.30;99.90
5200;DHT22;2619;47.868;11.892;2022-12-18T12:50:17;-2.40;99.90
5200;DHT22;2619;47.868;11.892;2022-12-18T12:52:51;-2.50;99.90
5200;DHT22;2619;47.868;11.892;2022-12-18T12:55:22;-2.50;99.90
5200;DHT22;2619;47.868;11.892;2022-12-18T12:57:57;-2.60;99.90
5200;DHT22;2619;47.868;11.892;2022-12-18T13:00:26;-2.70;99.90
5200;DHT22;2619;47.868;11.892;2022-12-18T13:08:00;-2.80;99.90
5200;DHT22;2619;47.868;11.892;2022-12-18T13:10:36;-2.90;99.90
5200;DHT22;2619;47.868;11.892;2022-12-18T13:13:10;-3.00;99.90
5200;DHT22;2619;47.868;11.892;2022-12-18T13:15:43;-3.00;99.90
5200;DHT22;2619;47.868;11.892;2022-12-18T13:23:39;-2.90;99.90
5200;DHT22;2619;47.868;11.892;2022-12-18T13:28:56;-3.10;99.90
5200;DHT22;2619;47.868;11.892;2022-12-18T13:34:29;-3.00;99.90
5200;DHT22;2619;47.868;11.892;2022-12-18T13:37:40;-2.90;99.90
5200;DHT22;2619;47.868;11.892;2022-12-18T13:48:21;-3.10;99.90
5200;DHT22;2619;47.868;11.892;2022-12-18T13:50:57;-3.10;99.90
5200;DHT22;2619;47.868;11.892;2022-12-18T13:53:27;-3.10;99.90
5200;DHT22;2619;47.868;11.892;2022-12-18T13:55:53;-3.30;99.90
5200;DHT22;2619;47.868;11.892;2022-12-18T13:58:19;-3.30;99.90
5200;DHT22;2619;47.868;11.892;2022-12-18T14:00:45;-3.20;99.90
5200;DHT22;2619;47.868;11.892;2022-12-18T14:03:23;-3.20;99.90
5200;DHT22;2619;47.868;11.892;2022-12-18T14:05:57;-3.20;99.90
5200;DHT22;2619;47.868;11.892;2022-12-18T14:08:26;-3.20;99.90
5200;DHT22;2619;47.868;11.892;2022-12-18T14:10:53;-3.50;99.90
5200;DHT22;2619;47.868;11.892;2022-12-18T14:13:29;-3.50;99.90
5200;DHT22;2619;47.868;11.892;2022-12-18T14:15:56;-3.50;99.90
5200;DHT22;2619;47.868;11.892;2022-12-18T14:18:23;-3.50;99.90
5200;DHT22;2619;47.868;11.892;2022-12-18T14:20:56;-3.40;99.90
5200;DHT22;2619;47.868;11.892;2022-12-18T14:23:39;-3.50;99.90
5200;DHT22;2619;47.868;11.892;2022-12-18T14:26:23;-3.70;99.90
5200;DHT22;2619;47.868;11.892;2022-12-18T14:28:50;-3.80;99.90
5200;DHT22;2619;47.868;11.892;2022-12-18T14:31:25;-3.70;99.90
5200;DHT22;2619;47.868;11.892;2022-12-18T14:33:52;-3.70;99.90
5200;DHT22;2619;47.868;11.892;2022-12-18T14:36:20;-3.80;99.90
5200;DHT22;2619;47.868;11.892;2022-12-18T14:38:57;-3.90;99.90
5200;DHT22;2619;47.868;11.892;2022-12-18T14:41:23;-4.00;99.90
5200;DHT22;2619;47.868;11.892;2022-12-18T14:43:51;-4.00;99.90
5200;DHT22;2619;47.868;11.892;2022-12-18T14:48:59;-4.20;99.90
5200;DHT22;2619;47.868;11.892;2022-12-18T14:51:29;-4.10;99.90
5200;DHT22;2619;47.868;11.892;2022-12-18T14:54:00;-4.20;99.90
5200;DHT22;2619;47.868;11.892;2022-12-18T14:56:29;-4.20;99.90
5200;DHT22;2619;47.868;11.892;2022-12-18T14:58:55;-4.20;99.90
5200;DHT22;2619;47.868;11.892;2022-12-18T15:01:27;-4.20;99.90
5200;DHT22;2619;47.868;11.892;2022-12-18T15:03:54;-4.20;99.90
5200;DHT22;2619;47.868;11.892;2022-12-18T15:06:37;-4.20;99.90
5200;DHT22;2619;47.868;11.892;2022-12-18T15:09:25;-4.30;99.90
5200;DHT22;2619;47.868;11.892;2022-12-18T15:11:56;-4.30;99.90
5200;DHT22;2619;47.868;11.892;2022-12-18T15:17:06;-4.40;99.90
5200;DHT22;2619;47.868;11.892;2022-12-18T15:19:40;-4.40;99.90
5200;DHT22;2619;47.868;11.892;2022-12-18T15:22:27;-4.40;99.90
5200;DHT22;2619;47.868;11.892;2022-12-18T15:24:55;-4.30;99.90
5200;DHT22;2619;47.868;11.892;2022-12-18T15:27:30;-4.30;99.90
5200;DHT22;2619;47.868;11.892;2022-12-18T15:32:34;-4.40;99.90
5200;DHT22;2619;47.868;11.892;2022-12-18T15:37:40;-4.50;99.90
5200;DHT22;2619;47.868;11.892;2022-12-18T15:40:07;-4.50;99.90
5200;DHT22;2619;47.868;11.892;2022-12-18T15:42:33;-4.50;99.90
5200;DHT22;2619;47.868;11.892;2022-12-18T15:45:17;-4.50;99.90
5200;DHT22;2619;47.868;11.892;2022-12-18T15:47:43;-4.50;99.90
5200;DHT22;2619;47.868;11.892;2022-12-18T15:50:09;-4.50;99.90
5200;DHT22;2619;47.868;11.892;2022-12-18T15:52:43;-4.50;99.90
5200;DHT22;2619;47.868;11.892;2022-12-18T15:55:18;-4.40;99.90
5200;DHT22;2619;47.868;11.892;2022-12-18T15:58:04;-4.50;99.90
5200;DHT22;2619;47.868;11.892;2022-12-18T16:00:30;-4.40;99.90
5200;DHT22;2619;47.868;11.892;2022-12-18T16:02:56;-4.40;99.90
5200;DHT22;2619;47.868;11.892;2022-12-18T16:05:23;-4.40;99.90
5200;DHT22;2619;47.868;11.892;2022-12-18T16:07:49;-4.40;99.90
5200;DHT22;2619;47.868;11.892;2022-12-18T16:10:15;-4.50;99.90
5200;DHT22;2619;47.868;11.892;2022-12-18T16:12:41;-4.40;99.90
5200;DHT22;2619;47.868;11.892;2022-12-18T16:15:07;-4.40;99.90
5200;DHT22;2619;47.868;11.892;2022-12-18T16:17:33;-4.40;99.90
5200;DHT22;2619;47.868;11.892;2022-12-18T16:19:58;-4.30;99.90
5200;DHT22;2619;47.868;11.892;2022-12-18T16:22:27;-4.30;99.90
5200;DHT22;2619;47.868;11.892;2022-12-18T16:24:54;-4.30;99.90
5200;DHT22;2619;47.868;11.892;2022-12-18T16:27:20;-4.30;99.90
5200;DHT22;2619;47.868;11.892;2022-12-18T16:29:46;-4.30;99.90
5200;DHT22;2619;47.868;11.892;2022-12-18T16:32:18;-4.30;99.90
5200;DHT22;2619;47.868;11.892;2022-12-18T16:34:44;-4.30;99.90
5200;DHT22;2619;47.868;11.892;2022-12-18T16:37:12;-4.20;99.90
5200;DHT22;2619;47.868;11.892;2022-12-18T16:39:39;-4.20;99.90
5200;DHT22;2619;47.868;11.892;2022-12-18T16:42:11;-4.20;99.90
5200;DHT22;2619;47.868;11.892;2022-12-18T16:44:40;-4.20;99.90
5200;DHT22;2619;47.868;11.892;2022-12-18T16:47:06;-4.30;99.90
5200;DHT22;2619;47.868;11.892;2022-12-18T16:49:31;-4.20;99.90
5200;DHT22;2619;47.868;11.892;2022-12-18T16:51:57;-4.30;99.90
5200;DHT22;2619;47.868;11.892;2022-12-18T16:54:26;-4.30;99.90
5200;DHT22;2619;47.868;11.892;2022-12-18T16:56:54;-4.30;99.90
5200;DHT22;2619;47.868;11.892;2022-12-18T16:59:20;-4.30;99.90
5200;DHT22;2619;47.868;11.892;2022-12-18T17:01:46;-4.30;99.90
5200;DHT22;2619;47.868;11.892;2022-12-18T17:04:11;-4.30;99.90
5200;DHT22;2619;47.868;11.892;2022-12-18T17:06:42;-4.40;99.90
5200;DHT22;2619;47.868;11.892;2022-12-18T17:09:11;-4.40;99.90
5200;DHT22;2619;47.868;11.892;2022-12-18T17:11:38;-4.50;99.90
5200;DHT22;2619;47.868;11.892;2022-12-18T17:14:12;-4.40;99.90
5200;DHT22;2619;47.868;11.892;2022-12-18T17:16:39;-4.50;99.90
5200;DHT22;2619;47.868;11.892;2022-12-18T17:19:05;-4.50;99.90
5200;DHT22;2619;47.868;11.892;2022-12-18T17:21:31;-4.40;99.90
5200;DHT22;2619;47.868;11.892;2022-12-18T17:23:59;-4.30;99.90
5200;DHT22;2619;47.868;11.892;2022-12-18T17:26:25;-4.30;99.90
5200;DHT22;2619;47.868;11.892;2022-12-18T17:28:51;-4.30;99.90
5200;DHT22;2619;47.868;11.892;2022-12-18T17:31:19;-4.30;99.90
5200;DHT22;2619;47.868;11.892;2022-12-18T17:33:44;-4.30;99.90
5200;DHT22;2619;47.868;11.892;2022-12-18T17:36:10;-4.30;99.90
5200;DHT22;2619;47.868;11.892;2022-12-18T17:38:38;-4.30;99.90
5200;DHT22;2619;47.868;11.892;2022-12-18T17:41:10;-4.30;99.90
5200;DHT22;2619;47.868;11.892;2022-12-18T17:43:36;-4.30;99.90
5200;DHT22;2619;47.868;11.892;2022-12-18T17:46:10;-4.30;99.90
5200;DHT22;2619;47.868;11.892;2022-12-18T17:48:37;-4.20;99.90
5200;DHT22;2619;47.868;11.892;2022-12-18T17:51:04;-4.20;99.90
5200;DHT22;2619;47.868;11.892;2022-12-18T17:53:30;-4.20;99.90
5200;DHT22;2619;47.868;11.892;2022-12-18T17:55:57;-4.20;99.90
5200;DHT22;2619;47.868;11.892;2022-12-18T17:58:25;-4.20;99.90
5200;DHT22;2619;47.868;11.892;2022-12-18T18:00:51;-4.30;99.90
5200;DHT22;2619;47.868;11.892;2022-12-18T18:03:16;-4.30;99.90